sensor_id;sensor_type;location;lat;lon;timestamp;pressure;altitude;pressure_sealevel;temperature;humidity
15568;BME280;7885;42.596;23.044;2022-07-23T00:00:18;93325.34;;;19.17;66.66
15568;BME280;7885;42.596;23.044;2022-07-23T00:02:45;93319.59;;;19.12;66.93
15568;BME280;7885;42.596;23.044;2022-07-23T00:05:13;93274.94;;;18.76;67.91
15568;BME280;7885;42.596;23.044;2022-07-23T00:07:40;93291.28;;;18.83;68.25
15568;BME280;7885;42.596;23.044;2022-07-23T00:10:08;93325.84;;;19.00;68.98
15568;BME280;7885;42.596;23.044;2022-07-23T00:12:35;93327.88;;;18.99;69.13
15568;BME280;7885;42.596;23.044;2022-07-23T00:15:02;93324.91;;;19.06;69.29
15568;BME280;7885;42.596;23.044;2022-07-23T00:17:29;93321.28;;;19.09;69.06
15568;BME280;7885;42.596;23.044;2022-07-23T00:19:56;93319.59;;;19.12;68.02
15568;BME280;7885;42.596;23.044;2022-07-23T00:22:24;93331.53;;;19.09;68.71
15568;BME280;7885;42.596;23.044;2022-07-23T00:25:17;93326.00;;;19.09;69.20
15568;BME280;7885;42.596;23.044;2022-07-23T00:27:44;93315.75;;;19.09;68.32
15568;BME280;7885;42.596;23.044;2022-07-23T00:30:13;93324.34;;;19.11;67.73
15568;BME280;7885;42.596;23.044;2022-07-23T00:32:47;93324.03;;;19.09;67.41
15568;BME280;7885;42.596;23.044;2022-07-23T00:35:14;93322.91;;;19.07;67.53
15568;BME280;7885;42.596;23.044;2022-07-23T00:37:42;93321.38;;;19.06;67.67
15568;BME280;7885;42.596;23.044;2022-07-23T00:40:11;93277.50;;;18.83;67.25
15568;BME280;7885;42.596;23.044;2022-07-23T00:42:38;93311.31;;;18.99;67.04
15568;BME280;7885;42.596;23.044;2022-07-23T00:45:06;93315.84;;;19.06;66.70
15568;BME280;7885;42.596;23.044;2022-07-23T00:47:33;93311.22;;;19.03;66.54
15568;BME280;7885;42.596;23.044;2022-07-23T00:50:00;93324.13;;;19.06;66.89
15568;BME280;7885;42.596;23.044;2022-07-23T00:52:28;93317.84;;;19.05;66.49
15568;BME280;7885;42.596;23.044;2022-07-23T00:54:56;93325.66;;;19.07;66.82
15568;BME280;7885;42.596;23.044;2022-07-23T00:57:23;93330.84;;;19.05;66.24
15568;BME280;7885;42.596;23.044;2022-07-23T00:59:50;93328.81;;;18.93;66.65
15568;BME280;7885;42.596;23.044;2022-07-23T01:02:17;93302.19;;;18.74;67.13
15568;BME280;7885;42.596;23.044;2022-07-23T01:04:44;93321.88;;;18.88;67.46
15568;BME280;7885;42.596;23.044;2022-07-23T01:07:11;93312.34;;;18.77;67.41
15568;BME280;7885;42.596;23.044;2022-07-23T01:09:38;93320.28;;;18.75;67.89
15568;BME280;7885;42.596;23.044;2022-07-23T01:12:07;93312.59;;;18.53;68.48
15568;BME280;7885;42.596;23.044;2022-07-23T01:14:34;93327.84;;;18.58;68.61
15568;BME280;7885;42.596;23.044;2022-07-23T01:17:01;93324.97;;;18.61;67.45
15568;BME280;7885;42.596;23.044;2022-07-23T01:19:28;93307.56;;;18.48;67.22
15568;BME280;7885;42.596;23.044;2022-07-23T01:21:57;93315.84;;;18.48;68.04
15568;BME280;7885;42.596;23.044;2022-07-23T01:24:27;93310.03;;;18.30;68.95
15568;BME280;7885;42.596;23.044;2022-07-23T01:26:54;93321.06;;;18.30;69.58
15568;BME280;7885;42.596;23.044;2022-07-23T01:29:20;93322.59;;;18.31;69.79
15568;BME280;7885;42.596;23.044;2022-07-23T01:31:48;93316.22;;;18.34;69.38
15568;BME280;7885;42.596;23.044;2022-07-23T01:34:15;93312.09;;;18.26;70.74
15568;BME280;7885;42.596;23.044;2022-07-23T01:36:41;93316.19;;;18.05;71.69
15568;BME280;7885;42.596;23.044;2022-07-23T01:39:08;93295.63;;;17.78;72.67
15568;BME280;7885;42.596;23.044;2022-07-23T01:41:36;93309.38;;;17.78;73.36
15568;BME280;7885;42.596;23.044;2022-07-23T01:44:03;93314.72;;;17.69;74.16
15568;BME280;7885;42.596;23.044;2022-07-23T01:46:30;93317.97;;;17.63;74.22
15568;BME280;7885;42.596;23.044;2022-07-23T01:48:57;93321.06;;;17.65;73.16
15568;BME280;7885;42.596;23.044;2022-07-23T01:51:23;93297.47;;;17.48;73.09
15568;BME280;7885;42.596;23.044;2022-07-23T01:53:50;93297.69;;;17.57;72.54
15568;BME280;7885;42.596;23.044;2022-07-23T01:56:17;93311.78;;;17.59;72.69
15568;BME280;7885;42.596;23.044;2022-07-23T01:58:47;93318.06;;;17.60;73.04
15568;BME280;7885;42.596;23.044;2022-07-23T02:01:14;93309.72;;;17.63;73.06
15568;BME280;7885;42.596;23.044;2022-07-23T02:03:41;93319.19;;;17.62;72.08
15568;BME280;7885;42.596;23.044;2022-07-23T02:06:07;93322.78;;;17.59;72.46
15568;BME280;7885;42.596;23.044;2022-07-23T02:08:34;93309.69;;;17.47;72.38
15568;BME280;7885;42.596;23.044;2022-07-23T02:11:01;93301.06;;;17.45;73.01
15568;BME280;7885;42.596;23.044;2022-07-23T02:13:28;93322.47;;;17.57;73.12
15568;BME280;7885;42.596;23.044;2022-07-23T02:15:56;93331.13;;;17.56;73.05
15568;BME280;7885;42.596;23.044;2022-07-23T02:18:23;93309.84;;;17.40;74.16
15568;BME280;7885;42.596;23.044;2022-07-23T02:20:49;93327.56;;;17.55;74.30
15568;BME280;7885;42.596;23.044;2022-07-23T02:23:16;93322.78;;;17.59;74.25
15568;BME280;7885;42.596;23.044;2022-07-23T02:25:43;93290.22;;;17.38;74.04
15568;BME280;7885;42.596;23.044;2022-07-23T02:28:10;93322.78;;;17.59;72.53
15568;BME280;7885;42.596;23.044;2022-07-23T02:30:36;93321.69;;;17.57;72.91
15568;BME280;7885;42.596;23.044;2022-07-23T02:33:06;93292.47;;;17.43;72.28
15568;BME280;7885;42.596;23.044;2022-07-23T02:35:33;93308.13;;;17.46;72.08
15568;BME280;7885;42.596;23.044;2022-07-23T02:37:59;93319.91;;;17.47;72.46
15568;BME280;7885;42.596;23.044;2022-07-23T02:40:26;93323.09;;;17.45;71.64
15568;BME280;7885;42.596;23.044;2022-07-23T02:42:53;93318.59;;;17.35;72.69
15568;BME280;7885;42.596;23.044;2022-07-23T02:45:19;93323.06;;;17.29;74.32
15568;BME280;7885;42.596;23.044;2022-07-23T02:47:46;93328.03;;;17.34;74.42
15568;BME280;7885;42.596;23.044;2022-07-23T02:50:14;93327.28;;;17.34;73.34
15568;BME280;7885;42.596;23.044;2022-07-23T02:52:41;93332.09;;;17.30;73.31
15568;BME280;7885;42.596;23.044;2022-07-23T02:55:08;93328.91;;;17.31;73.28
15568;BME280;7885;42.596;23.044;2022-07-23T02:57:36;93336.81;;;17.29;72.72
15568;BME280;7885;42.596;23.044;2022-07-23T03:00:04;93345.41;;;17.31;72.49
15568;BME280;7885;42.596;23.044;2022-07-23T03:02:31;93345.41;;;17.31;72.59
15568;BME280;7885;42.596;23.044;2022-07-23T03:04:58;93343.94;;;17.27;73.14
15568;BME280;7885;42.596;23.044;2022-07-23T03:07:26;93326.81;;;17.19;73.27
15568;BME280;7885;42.596;23.044;2022-07-23T03:09:53;93342.06;;;17.24;73.25
15568;BME280;7885;42.596;23.044;2022-07-23T03:12:20;93352.13;;;17.30;73.74
15568;BME280;7885;42.596;23.044;2022-07-23T03:14:46;93357.97;;;17.32;72.48
15568;BME280;7885;42.596;23.044;2022-07-23T03:17:13;93324.78;;;17.03;73.43
15568;BME280;7885;42.596;23.044;2022-07-23T03:19:40;93355.75;;;17.27;73.25
15568;BME280;7885;42.596;23.044;2022-07-23T03:22:07;93364.19;;;17.36;73.65
15568;BME280;7885;42.596;23.044;2022-07-23T03:24:35;93346.34;;;17.25;72.91
15568;BME280;7885;42.596;23.044;2022-07-23T03:27:19;93365.03;;;17.33;72.30
15568;BME280;7885;42.596;23.044;2022-07-23T03:29:45;93360.38;;;17.30;72.79
15568;BME280;7885;42.596;23.044;2022-07-23T03:32:12;93345.63;;;17.21;73.56
15568;BME280;7885;42.596;23.044;2022-07-23T03:34:39;93369.31;;;17.34;73.96
15568;BME280;7885;42.596;23.044;2022-07-23T03:37:06;93369.84;;;17.29;73.92
15568;BME280;7885;42.596;23.044;2022-07-23T03:39:32;93375.00;;;17.27;74.00
15568;BME280;7885;42.596;23.044;2022-07-23T03:42:01;93350.53;;;17.13;74.97
15568;BME280;7885;42.596;23.044;2022-07-23T03:44:28;93364.41;;;17.26;75.46
15568;BME280;7885;42.596;23.044;2022-07-23T03:46:54;93366.75;;;17.27;75.88
15568;BME280;7885;42.596;23.044;2022-07-23T03:49:21;93368.28;;;17.28;75.90
15568;BME280;7885;42.596;23.044;2022-07-23T03:51:48;93376.25;;;17.23;76.83
15568;BME280;7885;42.596;23.044;2022-07-23T03:54:15;93376.25;;;17.23;76.84
15568;BME280;7885;42.596;23.044;2022-07-23T03:56:41;93376.34;;;17.19;77.34
15568;BME280;7885;42.596;23.044;2022-07-23T03:59:10;93364.97;;;17.17;77.40
15568;BME280;7885;42.596;23.044;2022-07-23T04:01:37;93342.78;;;17.08;77.87
15568;BME280;7885;42.596;23.044;2022-07-23T04:04:04;93338.59;;;17.00;77.75
15568;BME280;7885;42.596;23.044;2022-07-23T04:06:30;93358.97;;;17.22;77.75
15568;BME280;7885;42.596;23.044;2022-07-23T04:08:57;93357.97;;;17.32;77.84
15568;BME280;7885;42.596;23.044;2022-07-23T04:11:24;93370.81;;;17.55;77.56
15568;BME280;7885;42.596;23.044;2022-07-23T04:13:51;93368.38;;;17.60;76.88
15568;BME280;7885;42.596;23.044;2022-07-23T04:16:19;93375.28;;;17.69;76.83
15568;BME280;7885;42.596;23.044;2022-07-23T04:18:46;93377.28;;;17.84;76.69
15568;BME280;7885;42.596;23.044;2022-07-23T04:21:13;93385.78;;;17.90;76.32
15568;BME280;7885;42.596;23.044;2022-07-23T04:23:39;93376.94;;;17.98;76.33
15568;BME280;7885;42.596;23.044;2022-07-23T04:26:06;93360.91;;;17.93;77.90
15568;BME280;7885;42.596;23.044;2022-07-23T04:35:18;93385.13;;;18.50;77.28
15568;BME280;7885;42.596;23.044;2022-07-23T04:37:45;93396.66;;;18.61;75.96
15568;BME280;7885;42.596;23.044;2022-07-23T04:40:13;93358.25;;;18.54;75.06
15568;BME280;7885;42.596;23.044;2022-07-23T04:42:39;93384.19;;;18.86;71.91
15568;BME280;7885;42.596;23.044;2022-07-23T04:45:07;93392.06;;;19.00;70.86
15568;BME280;7885;42.596;23.044;2022-07-23T04:47:34;93385.06;;;19.11;71.00
15568;BME280;7885;42.596;23.044;2022-07-23T04:50:00;93372.34;;;19.14;70.78
15568;BME280;7885;42.596;23.044;2022-07-23T04:52:29;93396.16;;;19.37;69.39
15568;BME280;7885;42.596;23.044;2022-07-23T04:54:55;93390.38;;;19.47;70.23
15568;BME280;7885;42.596;23.044;2022-07-23T04:57:22;93396.31;;;19.58;68.85
15568;BME280;7885;42.596;23.044;2022-07-23T04:59:49;93402.31;;;19.70;68.39
15568;BME280;7885;42.596;23.044;2022-07-23T05:02:16;93408.28;;;19.81;67.74
15568;BME280;7885;42.596;23.044;2022-07-23T05:04:42;93385.09;;;19.78;68.56
15568;BME280;7885;42.596;23.044;2022-07-23T05:07:09;93380.78;;;19.90;68.17
15568;BME280;7885;42.596;23.044;2022-07-23T05:09:37;93404.09;;;20.14;67.19
15568;BME280;7885;42.596;23.044;2022-07-23T05:12:09;93377.34;;;20.11;67.40
15568;BME280;7885;42.596;23.044;2022-07-23T05:14:36;93402.66;;;20.35;67.52
15568;BME280;7885;42.596;23.044;2022-07-23T05:17:03;93404.66;;;20.47;67.41
15568;BME280;7885;42.596;23.044;2022-07-23T05:19:30;93404.31;;;20.57;66.84
15568;BME280;7885;42.596;23.044;2022-07-23T05:21:57;93412.69;;;20.66;65.65
15568;BME280;7885;42.596;23.044;2022-07-23T05:24:23;93361.75;;;20.42;64.38
15568;BME280;7885;42.596;23.044;2022-07-23T05:26:51;93403.78;;;20.84;63.74
15568;BME280;7885;42.596;23.044;2022-07-23T05:29:18;93407.72;;;20.96;62.73
15568;BME280;7885;42.596;23.044;2022-07-23T05:31:45;93362.09;;;20.79;62.60
15568;BME280;7885;42.596;23.044;2022-07-23T05:34:12;93381.59;;;20.97;62.53
15568;BME280;7885;42.596;23.044;2022-07-23T05:36:39;93408.28;;;21.25;62.85
15568;BME280;7885;42.596;23.044;2022-07-23T05:39:05;93413.31;;;21.39;63.17
15568;BME280;7885;42.596;23.044;2022-07-23T05:41:32;93408.16;;;21.50;63.21
15568;BME280;7885;42.596;23.044;2022-07-23T05:44:00;93395.53;;;21.49;63.32
15568;BME280;7885;42.596;23.044;2022-07-23T05:46:27;93392.19;;;21.54;62.97
15568;BME280;7885;42.596;23.044;2022-07-23T05:48:54;93390.25;;;21.64;63.47
15568;BME280;7885;42.596;23.044;2022-07-23T05:51:21;93411.47;;;21.89;63.17
15568;BME280;7885;42.596;23.044;2022-07-23T05:53:47;93411.97;;;21.96;61.97
15568;BME280;7885;42.596;23.044;2022-07-23T05:56:14;93412.50;;;22.04;61.84
15568;BME280;7885;42.596;23.044;2022-07-23T05:58:41;93410.38;;;22.17;61.49
15568;BME280;7885;42.596;23.044;2022-07-23T06:01:09;93407.97;;;22.28;61.49
15568;BME280;7885;42.596;23.044;2022-07-23T06:03:37;93402.47;;;22.37;60.82
15568;BME280;7885;42.596;23.044;2022-07-23T06:06:04;93409.25;;;22.45;60.08
15568;BME280;7885;42.596;23.044;2022-07-23T06:15:14;93394.69;;;22.72;59.47
15568;BME280;7885;42.596;23.044;2022-07-23T06:17:42;93411.22;;;22.94;58.69
15568;BME280;7885;42.596;23.044;2022-07-23T06:20:09;93381.31;;;22.89;58.57
15568;BME280;7885;42.596;23.044;2022-07-23T06:22:37;93408.63;;;23.17;58.23
15568;BME280;7885;42.596;23.044;2022-07-23T06:25:04;93380.09;;;23.08;56.79
15568;BME280;7885;42.596;23.044;2022-07-23T06:27:31;93406.31;;;23.34;56.27
15568;BME280;7885;42.596;23.044;2022-07-23T06:29:58;93402.78;;;23.43;56.96
15568;BME280;7885;42.596;23.044;2022-07-23T06:32:25;93399.06;;;23.55;55.42
15568;BME280;7885;42.596;23.044;2022-07-23T06:34:55;93385.19;;;23.46;55.96
15568;BME280;7885;42.596;23.044;2022-07-23T06:44:05;93390.16;;;23.93;56.66
15568;BME280;7885;42.596;23.044;2022-07-23T06:46:31;93388.75;;;24.06;55.63
15568;BME280;7885;42.596;23.044;2022-07-23T06:48:58;93387.34;;;24.20;55.74
15568;BME280;7885;42.596;23.044;2022-07-23T06:51:27;93372.00;;;24.25;54.49
15568;BME280;7885;42.596;23.044;2022-07-23T06:53:53;93380.91;;;24.38;54.52
15568;BME280;7885;42.596;23.044;2022-07-23T06:56:20;93385.97;;;24.48;54.16
15568;BME280;7885;42.596;23.044;2022-07-23T06:58:47;93361.56;;;24.43;53.49
15568;BME280;7885;42.596;23.044;2022-07-23T07:01:14;93333.66;;;24.29;53.24
15568;BME280;7885;42.596;23.044;2022-07-23T07:03:41;93385.09;;;24.66;53.05
15568;BME280;7885;42.596;23.044;2022-07-23T07:06:07;93363.00;;;24.62;52.56
15568;BME280;7885;42.596;23.044;2022-07-23T07:08:36;93385.59;;;24.88;54.33
15568;BME280;7885;42.596;23.044;2022-07-23T07:11:03;93394.94;;;25.00;52.22
15568;BME280;7885;42.596;23.044;2022-07-23T07:13:30;93386.22;;;25.07;52.45
15568;BME280;7885;42.596;23.044;2022-07-23T07:15:56;93390.50;;;25.17;51.52
15568;BME280;7885;42.596;23.044;2022-07-23T07:18:23;93386.38;;;25.27;50.31
15568;BME280;7885;42.596;23.044;2022-07-23T07:20:50;93380.25;;;25.38;51.06
15568;BME280;7885;42.596;23.044;2022-07-23T07:23:17;93352.88;;;25.36;51.32
15568;BME280;7885;42.596;23.044;2022-07-23T07:25:45;93368.69;;;25.54;50.53
15568;BME280;7885;42.596;23.044;2022-07-23T07:28:12;93371.69;;;25.65;50.09
15568;BME280;7885;42.596;23.044;2022-07-23T07:30:39;93385.63;;;25.80;50.84
15568;BME280;7885;42.596;23.044;2022-07-23T07:33:05;93373.69;;;25.94;50.86
15568;BME280;7885;42.596;23.044;2022-07-23T07:35:32;93375.97;;;26.10;51.76
15568;BME280;7885;42.596;23.044;2022-07-23T07:37:59;93376.41;;;26.18;49.28
15568;BME280;7885;42.596;23.044;2022-07-23T07:40:26;93377.06;;;26.27;48.16
15568;BME280;7885;42.596;23.044;2022-07-23T07:42:54;93375.97;;;26.39;48.13
15568;BME280;7885;42.596;23.044;2022-07-23T07:45:23;93359.03;;;26.43;47.82
15568;BME280;7885;42.596;23.044;2022-07-23T07:47:51;93366.47;;;26.66;48.41
15568;BME280;7885;42.596;23.044;2022-07-23T07:50:18;93364.09;;;26.79;48.15
15568;BME280;7885;42.596;23.044;2022-07-23T07:52:45;93366.59;;;26.92;48.35
15568;BME280;7885;42.596;23.044;2022-07-23T07:55:12;93333.34;;;26.94;48.61
15568;BME280;7885;42.596;23.044;2022-07-23T07:57:39;93360.44;;;27.28;44.30
15568;BME280;7885;42.596;23.044;2022-07-23T08:00:09;93356.94;;;27.33;46.06
15568;BME280;7885;42.596;23.044;2022-07-23T08:02:44;93359.75;;;27.53;45.25
15568;BME280;7885;42.596;23.044;2022-07-23T08:05:12;93326.03;;;27.42;46.49
15568;BME280;7885;42.596;23.044;2022-07-23T08:07:39;93351.28;;;27.74;44.54
15568;BME280;7885;42.596;23.044;2022-07-23T08:10:07;93349.69;;;27.93;42.24
15568;BME280;7885;42.596;23.044;2022-07-23T08:12:39;93357.00;;;28.10;43.25
15568;BME280;7885;42.596;23.044;2022-07-23T08:15:08;93348.47;;;28.25;43.34
15568;BME280;7885;42.596;23.044;2022-07-23T08:17:36;93355.72;;;28.43;43.64
15568;BME280;7885;42.596;23.044;2022-07-23T08:20:03;93358.09;;;28.55;43.35
15568;BME280;7885;42.596;23.044;2022-07-23T08:22:47;93356.72;;;28.77;43.16
15568;BME280;7885;42.596;23.044;2022-07-23T08:25:14;93354.00;;;28.93;42.91
15568;BME280;7885;42.596;23.044;2022-07-23T08:27:42;93342.88;;;29.04;42.96
15568;BME280;7885;42.596;23.044;2022-07-23T08:30:10;93348.28;;;29.19;41.91
15568;BME280;7885;42.596;23.044;2022-07-23T08:32:51;93342.69;;;29.25;41.74
15568;BME280;7885;42.596;23.044;2022-07-23T08:35:21;93344.56;;;29.44;42.36
15568;BME280;7885;42.596;23.044;2022-07-23T08:37:48;93357.13;;;29.60;41.36
15568;BME280;7885;42.596;23.044;2022-07-23T08:40:15;93347.19;;;29.76;42.41
15568;BME280;7885;42.596;23.044;2022-07-23T08:42:42;93343.41;;;29.90;42.25
15568;BME280;7885;42.596;23.044;2022-07-23T08:45:11;93341.91;;;30.05;41.67
15568;BME280;7885;42.596;23.044;2022-07-23T08:47:38;93344.72;;;30.22;40.86
15568;BME280;7885;42.596;23.044;2022-07-23T08:50:07;93342.16;;;30.30;39.38
15568;BME280;7885;42.596;23.044;2022-07-23T08:52:34;93347.28;;;30.48;40.33
15568;BME280;7885;42.596;23.044;2022-07-23T08:55:03;93335.03;;;30.56;40.60
15568;BME280;7885;42.596;23.044;2022-07-23T08:57:30;93330.13;;;30.74;39.64
15568;BME280;7885;42.596;23.044;2022-07-23T08:59:56;93342.88;;;30.97;40.81
15568;BME280;7885;42.596;23.044;2022-07-23T09:02:24;93336.94;;;31.12;40.00
15568;BME280;7885;42.596;23.044;2022-07-23T09:04:51;93324.41;;;31.18;38.62
15568;BME280;7885;42.596;23.044;2022-07-23T09:07:18;93348.31;;;31.41;38.38
15568;BME280;7885;42.596;23.044;2022-07-23T09:09:45;93335.50;;;31.51;37.46
15568;BME280;7885;42.596;23.044;2022-07-23T09:12:11;93336.72;;;31.67;34.37
15568;BME280;7885;42.596;23.044;2022-07-23T09:14:40;93343.78;;;31.85;33.06
15568;BME280;7885;42.596;23.044;2022-07-23T09:17:11;93351.88;;;31.99;32.06
15568;BME280;7885;42.596;23.044;2022-07-23T09:19:40;93333.41;;;32.10;31.99
15568;BME280;7885;42.596;23.044;2022-07-23T09:22:20;93331.31;;;32.16;32.02
15568;BME280;7885;42.596;23.044;2022-07-23T09:25:05;93334.69;;;32.38;33.51
15568;BME280;7885;42.596;23.044;2022-07-23T09:27:46;93334.69;;;32.38;29.81
15568;BME280;7885;42.596;23.044;2022-07-23T09:30:13;93308.97;;;32.23;30.87
15568;BME280;7885;42.596;23.044;2022-07-23T09:32:40;93329.63;;;32.31;30.03
15568;BME280;7885;42.596;23.044;2022-07-23T09:35:09;93329.19;;;32.51;29.47
15568;BME280;7885;42.596;23.044;2022-07-23T09:37:36;93316.91;;;32.54;28.20
15568;BME280;7885;42.596;23.044;2022-07-23T09:40:08;93322.09;;;32.75;29.12
15568;BME280;7885;42.596;23.044;2022-07-23T09:42:37;93319.16;;;32.86;29.25
15568;BME280;7885;42.596;23.044;2022-07-23T09:45:10;93320.88;;;32.94;29.75
15568;BME280;7885;42.596;23.044;2022-07-23T09:47:37;93326.34;;;33.11;29.33
15568;BME280;7885;42.596;23.044;2022-07-23T09:50:06;93322.47;;;33.14;26.89
15568;BME280;7885;42.596;23.044;2022-07-23T09:52:43;93320.94;;;33.13;25.55
15568;BME280;7885;42.596;23.044;2022-07-23T09:55:10;93282.63;;;32.99;26.08
15568;BME280;7885;42.596;23.044;2022-07-23T09:57:37;93319.16;;;33.10;24.90
15568;BME280;7885;42.596;23.044;2022-07-23T10:00:08;93280.59;;;32.75;26.10
15568;BME280;7885;42.596;23.044;2022-07-23T10:02:36;93284.41;;;32.78;25.68
15568;BME280;7885;42.596;23.044;2022-07-23T10:05:04;93308.63;;;32.86;25.77
15568;BME280;7885;42.596;23.044;2022-07-23T10:07:36;93305.63;;;33.03;26.14
15568;BME280;7885;42.596;23.044;2022-07-23T10:10:04;93297.72;;;33.01;24.67
15568;BME280;7885;42.596;23.044;2022-07-23T10:12:31;93288.13;;;33.10;25.30
15568;BME280;7885;42.596;23.044;2022-07-23T10:15:15;93284.13;;;33.00;24.03
15568;BME280;7885;42.596;23.044;2022-07-23T10:17:42;93298.69;;;33.04;24.77
15568;BME280;7885;42.596;23.044;2022-07-23T10:20:09;93294.13;;;33.01;23.75
15568;BME280;7885;42.596;23.044;2022-07-23T10:22:42;93299.06;;;33.19;24.56
15568;BME280;7885;42.596;23.044;2022-07-23T10:25:22;93296.38;;;33.51;26.39
15568;BME280;7885;42.596;23.044;2022-07-23T10:28:06;93296.63;;;33.72;24.69
15568;BME280;7885;42.596;23.044;2022-07-23T10:30:41;93301.84;;;33.99;25.78
15568;BME280;7885;42.596;23.044;2022-07-23T10:33:17;93295.34;;;34.23;25.50
15568;BME280;7885;42.596;23.044;2022-07-23T10:35:50;93227.66;;;33.99;24.17
15568;BME280;7885;42.596;23.044;2022-07-23T10:38:25;93289.03;;;33.98;21.58
15568;BME280;7885;42.596;23.044;2022-07-23T10:40:55;93280.88;;;33.58;21.44
15568;BME280;7885;42.596;23.044;2022-07-23T10:43:23;93283.16;;;33.78;21.72
15568;BME280;7885;42.596;23.044;2022-07-23T10:45:50;93279.47;;;34.01;22.33
15568;BME280;7885;42.596;23.044;2022-07-23T10:48:19;93279.06;;;34.11;21.74
15568;BME280;7885;42.596;23.044;2022-07-23T10:51:07;93274.38;;;34.32;22.26
15568;BME280;7885;42.596;23.044;2022-07-23T10:53:56;93278.22;;;34.47;20.87
15568;BME280;7885;42.596;23.044;2022-07-23T10:57:04;93272.84;;;34.76;20.62
15568;BME280;7885;42.596;23.044;2022-07-23T11:00:08;93264.69;;;34.72;20.04
15568;BME280;7885;42.596;23.044;2022-07-23T11:02:37;93258.50;;;34.87;19.98
15568;BME280;7885;42.596;23.044;2022-07-23T11:05:07;93257.06;;;34.93;20.49
15568;BME280;7885;42.596;23.044;2022-07-23T11:07:35;93265.00;;;35.08;19.95
15568;BME280;7885;42.596;23.044;2022-07-23T11:10:04;93256.53;;;35.21;20.41
15568;BME280;7885;42.596;23.044;2022-07-23T11:12:34;93237.81;;;35.31;19.30
15568;BME280;7885;42.596;23.044;2022-07-23T11:15:09;93249.50;;;35.62;19.71
15568;BME280;7885;42.596;23.044;2022-07-23T11:17:37;93246.31;;;35.78;19.51
15568;BME280;7885;42.596;23.044;2022-07-23T11:20:20;93250.69;;;36.00;19.16
15568;BME280;7885;42.596;23.044;2022-07-23T11:22:49;93256.78;;;35.70;15.73
15568;BME280;7885;42.596;23.044;2022-07-23T11:25:33;93238.19;;;35.62;16.80
15568;BME280;7885;42.596;23.044;2022-07-23T11:28:18;93235.00;;;35.65;17.78
15568;BME280;7885;42.596;23.044;2022-07-23T11:30:46;93240.38;;;35.89;17.05
15568;BME280;7885;42.596;23.044;2022-07-23T11:33:19;93250.44;;;36.11;15.31
15568;BME280;7885;42.596;23.044;2022-07-23T11:35:47;93236.28;;;36.11;16.58
15568;BME280;7885;42.596;23.044;2022-07-23T11:38:16;93216.44;;;36.11;16.97
15568;BME280;7885;42.596;23.044;2022-07-23T11:40:45;93234.66;;;36.03;13.97
15568;BME280;7885;42.596;23.044;2022-07-23T11:43:13;93228.75;;;35.80;14.51
15568;BME280;7885;42.596;23.044;2022-07-23T11:45:41;93222.41;;;35.87;15.75
15568;BME280;7885;42.596;23.044;2022-07-23T11:48:17;93212.72;;;36.03;17.32
15568;BME280;7885;42.596;23.044;2022-07-23T11:50:45;93215.06;;;36.25;17.73
15568;BME280;7885;42.596;23.044;2022-07-23T11:53:12;93217.44;;;36.42;17.90
15568;BME280;7885;42.596;23.044;2022-07-23T11:55:39;93208.66;;;36.53;17.61
15568;BME280;7885;42.596;23.044;2022-07-23T11:58:07;93219.59;;;36.70;17.65
15568;BME280;7885;42.596;23.044;2022-07-23T12:00:34;93178.53;;;36.42;16.67
15568;BME280;7885;42.596;23.044;2022-07-23T12:03:02;93209.19;;;36.52;15.91
15568;BME280;7885;42.596;23.044;2022-07-23T12:05:33;93207.13;;;36.73;17.38
15568;BME280;7885;42.596;23.044;2022-07-23T12:08:02;93205.84;;;36.81;16.36
15568;BME280;7885;42.596;23.044;2022-07-23T12:10:34;93195.88;;;36.88;16.96
15568;BME280;7885;42.596;23.044;2022-07-23T12:13:02;93202.66;;;36.85;17.15
15568;BME280;7885;42.596;23.044;2022-07-23T12:15:32;93196.78;;;36.83;16.68
15568;BME280;7885;42.596;23.044;2022-07-23T12:18:01;93183.50;;;36.78;16.78
15568;BME280;7885;42.596;23.044;2022-07-23T12:20:30;93200.81;;;36.95;15.65
15568;BME280;7885;42.596;23.044;2022-07-23T12:22:59;93178.47;;;36.91;15.68
15568;BME280;7885;42.596;23.044;2022-07-23T12:28:52;93182.56;;;37.11;16.32
15568;BME280;7885;42.596;23.044;2022-07-23T12:31:27;93197.16;;;37.15;15.79
15568;BME280;7885;42.596;23.044;2022-07-23T12:33:54;93173.75;;;37.22;16.38
15568;BME280;7885;42.596;23.044;2022-07-23T12:36:36;93183.63;;;37.36;15.53
15568;BME280;7885;42.596;23.044;2022-07-23T12:39:04;93183.97;;;37.25;15.16
15568;BME280;7885;42.596;23.044;2022-07-23T12:41:55;93180.94;;;37.23;14.74
15568;BME280;7885;42.596;23.044;2022-07-23T12:44:22;93176.38;;;37.20;14.40
15568;BME280;7885;42.596;23.044;2022-07-23T12:46:52;93158.34;;;37.10;15.89
15568;BME280;7885;42.596;23.044;2022-07-23T12:49:25;93169.59;;;37.23;14.56
15568;BME280;7885;42.596;23.044;2022-07-23T12:51:52;93169.59;;;37.31;14.99
15568;BME280;7885;42.596;23.044;2022-07-23T12:54:26;93173.41;;;37.41;13.51
15568;BME280;7885;42.596;23.044;2022-07-23T12:56:54;93171.16;;;37.39;13.92
15568;BME280;7885;42.596;23.044;2022-07-23T12:59:20;93157.28;;;37.28;12.20
15568;BME280;7885;42.596;23.044;2022-07-23T13:01:55;93163.19;;;37.38;13.99
15568;BME280;7885;42.596;23.044;2022-07-23T13:07:45;93160.41;;;37.02;14.06
15568;BME280;7885;42.596;23.044;2022-07-23T13:10:12;93159.88;;;36.75;14.42
15568;BME280;7885;42.596;23.044;2022-07-23T13:12:39;93148.16;;;36.79;15.27
15568;BME280;7885;42.596;23.044;2022-07-23T13:15:06;93143.22;;;36.72;16.01
15568;BME280;7885;42.596;23.044;2022-07-23T13:17:35;93154.75;;;36.74;15.06
15568;BME280;7885;42.596;23.044;2022-07-23T13:20:02;93152.28;;;36.50;14.64
15568;BME280;7885;42.596;23.044;2022-07-23T13:22:29;93138.97;;;36.58;15.54
15568;BME280;7885;42.596;23.044;2022-07-23T13:24:56;93139.03;;;36.73;16.94
15568;BME280;7885;42.596;23.044;2022-07-23T13:27:22;93157.75;;;36.76;15.22
15568;BME280;7885;42.596;23.044;2022-07-23T13:36:34;93135.69;;;36.54;16.61
15568;BME280;7885;42.596;23.044;2022-07-23T13:39:02;93136.41;;;36.46;15.13
15568;BME280;7885;42.596;23.044;2022-07-23T13:41:29;93133.00;;;36.20;16.22